Time;durP1;ratioP1;P1;durP2;ratioP2;P2;SDS_P1;SDS_P2;PMS_P1;PMS_P2;Temp;Humidity;BMP_temperature;BMP_pressure;BME280_temperature;BME280_humidity;BME280_pressure;Samples;Min_cycle;Max_cycle;Signal;HPM_P1;HPM_P2
2022/05/01 00:01:31;;;;;;;33.73;18.07;;;8.90;99.90;;;;;;5053771;28;20609;-53
2022/05/01 00:03:57;;;;;;;30.67;17.27;;;8.90;99.90;;;;;;5053194;28;20196;-55
2022/05/01 00:06:22;;;;;;;24.77;17.53;;;8.90;99.90;;;;;;5053822;28;20656;-53
2022/05/01 00:08:48;;;;;;;27.97;18.17;;;8.90;99.90;;;;;;5053535;28;20210;-53
2022/05/01 00:11:14;;;;;;;30.20;18.17;;;8.80;99.90;;;;;;5053309;28;20199;-53
2022/05/01 00:13:44;;;;;;;31.17;18.17;;;8.80;99.90;;;;;;5053604;28;20222;-53
2022/05/01 00:16:11;;;;;;;31.07;17.30;;;8.80;99.90;;;;;;5053082;28;20541;-54
2022/05/01 00:18:37;;;;;;;29.87;19.07;;;8.80;99.90;;;;;;5053292;28;20204;-56
2022/05/01 00:21:04;;;;;;;32.00;19.00;;;8.80;99.90;;;;;;5052942;28;20608;-55
2022/05/01 00:23:29;;;;;;;30.90;19.60;;;8.70;99.90;;;;;;5053489;28;20228;-53
2022/05/01 00:25:55;;;;;;;29.83;19.17;;;8.60;99.90;;;;;;5053026;28;20282;-55
2022/05/01 00:28:21;;;;;;;38.27;19.17;;;8.50;99.90;;;;;;5053248;28;20185;-55
2022/05/01 00:30:47;;;;;;;31.40;18.80;;;8.50;99.90;;;;;;5053196;28;20205;-56
2022/05/01 00:38:41;;;;;;;27.57;17.10;;;8.30;99.90;;;;;;5053312;28;20203;-53
2022/05/01 00:41:07;;;;;;;27.23;17.93;;;8.30;99.90;;;;;;5052943;28;20187;-54
2022/05/01 00:44:06;;;;;;;28.03;18.07;;;8.20;99.90;;;;;;5052684;28;20638;-55
2022/05/01 00:46:53;;;;;;;26.87;17.90;;;8.10;99.90;;;;;;5046808;28;20237;-53
2022/05/01 00:49:24;;;;;;;30.37;18.17;;;8.10;99.90;;;;;;5052888;28;20190;-55
2022/05/01 00:52:19;;;;;;;30.17;17.43;;;8.00;99.90;;;;;;5053080;28;20188;-54
2022/05/01 00:54:47;;;;;;;24.67;16.23;;;8.00;99.90;;;;;;5039724;28;20700;-54
2022/05/01 00:57:14;;;;;;;27.87;15.83;;;7.90;99.90;;;;;;5052440;28;20331;-56
2022/05/01 00:59:41;;;;;;;30.70;16.67;;;7.90;99.90;;;;;;5052864;28;20167;-54
2022/05/01 01:02:08;;;;;;;26.70;15.90;;;7.80;99.90;;;;;;5052339;28;20188;-53
2022/05/01 01:04:33;;;;;;;30.70;16.20;;;7.80;99.90;;;;;;5052460;28;20759;-54
2022/05/01 01:06:59;;;;;;;24.30;15.83;;;7.70;99.90;;;;;;5052589;28;20277;-54
2022/05/01 01:09:25;;;;;;;25.07;16.20;;;7.70;99.90;;;;;;5052611;28;20183;-54
2022/05/01 01:14:35;;;;;;;26.07;15.20;;;7.70;99.90;;;;;;5052786;28;20570;-53
2022/05/01 01:17:01;;;;;;;26.33;15.87;;;7.60;99.90;;;;;;5051820;28;20245;-53
2022/05/01 01:19:26;;;;;;;28.67;16.20;;;7.60;99.90;;;;;;5052422;28;20240;-54
2022/05/01 01:21:52;;;;;;;29.57;16.43;;;7.60;99.90;;;;;;5052405;28;20583;-51
2022/05/01 01:24:18;;;;;;;28.63;15.67;;;7.60;99.90;;;;;;5052039;28;20277;-54
2022/05/01 01:26:44;;;;;;;26.33;17.57;;;7.50;99.90;;;;;;5052353;28;20758;-53
2022/05/01 01:31:55;;;;;;;27.43;17.10;;;7.50;99.90;;;;;;5052107;28;20239;-53
2022/05/01 01:34:26;;;;;;;30.93;17.33;;;7.50;99.90;;;;;;5051821;28;20708;-53
2022/05/01 01:36:53;;;;;;;27.80;17.57;;;7.60;99.90;;;;;;5051902;28;20663;-54
2022/05/01 01:39:19;;;;;;;33.30;18.10;;;7.60;99.90;;;;;;5051802;28;20210;-53
2022/05/01 01:41:48;;;;;;;31.60;19.03;;;7.60;99.90;;;;;;5051867;28;20648;-55
2022/05/01 01:44:14;;;;;;;33.80;18.70;;;7.60;99.90;;;;;;5051819;28;20186;-54
2022/05/01 01:46:40;;;;;;;30.00;18.73;;;7.60;99.90;;;;;;5052058;28;20210;-53
2022/05/01 01:49:10;;;;;;;36.27;20.43;;;7.60;99.90;;;;;;5051787;28;20629;-49
2022/05/01 01:51:37;;;;;;;32.20;18.10;;;7.60;99.90;;;;;;5050345;28;20260;-54
2022/05/01 01:54:03;;;;;;;28.87;17.93;;;7.60;99.90;;;;;;5051606;28;20190;-51
2022/05/01 01:56:29;;;;;;;27.37;16.93;;;7.70;99.90;;;;;;5051153;28;20215;-57
2022/05/01 01:58:54;;;;;;;30.73;17.57;;;7.60;99.90;;;;;;5034052;28;20548;-54
2022/05/01 02:01:20;;;;;;;28.93;17.77;;;7.60;99.90;;;;;;5051620;28;20641;-50
2022/05/01 02:03:46;;;;;;;26.87;17.90;;;7.60;99.90;;;;;;5051636;28;20186;-52
2022/05/01 02:06:11;;;;;;;29.40;18.50;;;7.60;99.90;;;;;;5051446;28;20187;-53
2022/05/01 02:08:37;;;;;;;33.53;17.93;;;7.70;99.90;;;;;;5051727;28;20639;-53
2022/05/01 02:11:04;;;;;;;32.63;18.73;;;7.70;99.90;;;;;;5051176;28;20652;-53
2022/05/01 02:13:30;;;;;;;31.27;18.63;;;7.70;99.90;;;;;;5051591;28;20180;-52
2022/05/01 02:15:56;;;;;;;31.07;19.73;;;7.70;99.90;;;;;;5051606;28;20211;-55
2022/05/01 02:18:22;;;;;;;26.83;18.27;;;7.80;99.90;;;;;;5051335;28;20193;-52
2022/05/01 02:23:33;;;;;;;35.40;19.07;;;7.70;99.90;;;;;;5050448;28;20236;-52
2022/05/01 02:25:59;;;;;;;32.63;19.37;;;7.70;99.90;;;;;;5051328;28;20188;-60
2022/05/01 02:28:25;;;;;;;29.77;18.60;;;7.70;99.90;;;;;;5051172;28;20224;-51
2022/05/01 02:30:51;;;;;;;31.27;18.97;;;7.70;99.90;;;;;;5051197;28;20178;-52
2022/05/01 02:33:18;;;;;;;30.70;18.90;;;7.70;99.90;;;;;;5050989;28;20182;-52
2022/05/01 02:35:44;;;;;;;28.73;18.07;;;7.80;99.90;;;;;;5051141;28;20212;-53
2022/05/01 02:38:11;;;;;;;39.00;19.93;;;7.80;99.90;;;;;;5050971;28;20281;-53
2022/05/01 02:40:37;;;;;;;28.90;19.53;;;7.90;99.90;;;;;;5051505;28;20177;-51
2022/05/01 02:43:05;;;;;;;32.83;19.93;;;7.90;99.90;;;;;;5051296;28;20183;-55
2022/05/01 02:45:31;;;;;;;30.53;19.60;;;7.90;99.90;;;;;;5051114;28;20242;-50
2022/05/01 02:47:57;;;;;;;27.47;19.00;;;7.90;99.90;;;;;;5051141;28;20260;-55
2022/05/01 02:50:23;;;;;;;33.43;19.83;;;7.80;99.90;;;;;;5049233;28;20194;-55
2022/05/01 02:52:54;;;;;;;29.70;18.90;;;7.90;99.90;;;;;;5051085;28;20563;-52
2022/05/01 02:55:20;;;;;;;31.97;19.67;;;7.90;99.90;;;;;;5050966;28;20345;-55
2022/05/01 02:57:46;;;;;;;30.90;18.90;;;7.80;99.90;;;;;;5051183;28;20193;-52
2022/05/01 03:00:18;;;;;;;34.17;20.90;;;7.80;99.90;;;;;;5050818;28;20184;-54
2022/05/01 03:02:48;;;;;;;34.50;20.23;;;7.80;99.90;;;;;;5051164;28;20178;-54
2022/05/01 03:05:15;;;;;;;31.93;19.27;;;7.80;99.90;;;;;;5049290;28;20190;-53
2022/05/01 03:07:41;;;;;;;26.93;17.73;;;7.80;99.90;;;;;;5051024;28;20206;-51
2022/05/01 03:10:08;;;;;;;28.47;17.37;;;7.80;99.90;;;;;;5053774;28;20594;-53
2022/05/01 03:12:34;;;;;;;34.83;17.80;;;7.90;99.90;;;;;;5054832;28;20186;-52
2022/05/01 03:15:02;;;;;;;27.37;16.13;;;7.90;99.90;;;;;;5054591;28;20528;-53
2022/05/01 03:22:10;;;;;;;30.80;16.47;;;7.90;99.90;;;;;;5054775;28;20701;-53
2022/05/01 03:22:57;;;;;;;30.20;15.20;;;7.90;99.90;;;;;;5054733;28;20599;-51
2022/05/01 03:25:23;;;;;;;33.80;17.03;;;8.00;99.90;;;;;;5052898;28;20195;-52
2022/05/01 03:27:48;;;;;;;25.10;16.03;;;7.90;99.90;;;;;;5054408;28;20290;-53
2022/05/01 03:30:17;;;;;;;25.37;16.10;;;7.90;99.90;;;;;;5053652;28;20186;-55
2022/05/01 03:32:43;;;;;;;31.43;16.00;;;8.00;99.90;;;;;;5054085;28;20184;-56
2022/05/01 03:35:09;;;;;;;20.27;14.67;;;8.10;99.90;;;;;;5053727;28;20240;-51
2022/05/01 03:37:34;;;;;;;23.23;14.83;;;8.10;99.90;;;;;;5054108;28;20182;-54
2022/05/01 03:40:03;;;;;;;26.33;15.20;;;8.20;99.90;;;;;;5053587;28;20176;-54
2022/05/01 03:42:29;;;;;;;22.93;13.83;;;8.20;99.90;;;;;;5053855;28;20187;-55
2022/05/01 03:44:55;;;;;;;23.60;13.80;;;8.20;99.90;;;;;;5054063;28;20183;-56
2022/05/01 03:47:40;;;;;;;24.20;14.57;;;8.30;99.90;;;;;;5053651;28;20649;-51
2022/05/01 03:50:06;;;;;;;24.87;14.60;;;8.30;99.90;;;;;;5053748;28;20686;-56
2022/05/01 03:52:35;;;;;;;25.20;14.60;;;8.40;99.90;;;;;;5053877;28;20279;-54
2022/05/01 03:55:01;;;;;;;23.43;15.20;;;8.40;99.90;;;;;;5053606;28;20257;-58
2022/05/01 03:57:27;;;;;;;22.40;14.70;;;8.50;99.90;;;;;;5053685;28;20188;-54
2022/05/01 03:59:52;;;;;;;30.40;14.80;;;8.50;99.90;;;;;;5053564;28;20732;-53
2022/05/01 04:02:18;;;;;;;27.27;14.53;;;8.50;99.90;;;;;;5051904;28;20279;-54
2022/05/01 04:04:46;;;;;;;20.53;13.47;;;8.60;99.90;;;;;;5053594;28;20183;-53
2022/05/01 04:07:12;;;;;;;18.70;12.73;;;8.60;99.90;;;;;;5053124;28;20749;-54
2022/05/01 04:09:38;;;;;;;27.57;13.27;;;8.70;99.90;;;;;;5053620;28;20265;-54
2022/05/01 04:12:05;;;;;;;19.30;12.47;;;8.70;99.90;;;;;;5053317;28;20184;-51
2022/05/01 04:14:32;;;;;;;21.27;12.97;;;8.80;99.90;;;;;;5052246;28;20181;-56
2022/05/01 04:16:59;;;;;;;28.37;12.87;;;8.90;99.90;;;;;;5053355;28;20224;-50
2022/05/01 04:19:25;;;;;;;20.00;13.43;;;9.00;99.90;;;;;;5053045;28;20193;-53
2022/05/01 04:21:51;;;;;;;21.60;12.23;;;9.10;99.90;;;;;;5053457;28;20236;-54
2022/05/01 04:24:17;;;;;;;29.17;13.53;;;9.30;99.90;;;;;;5053156;28;20540;-54
2022/05/01 04:26:42;;;;;;;19.10;12.73;;;9.40;99.90;;;;;;5052736;28;20197;-54
2022/05/01 04:31:53;;;;;;;24.60;11.83;;;9.70;99.90;;;;;;5053358;28;20210;-53
2022/05/01 04:34:18;;;;;;;21.53;12.37;;;9.90;99.90;;;;;;5052899;28;20595;-53
2022/05/01 04:36:44;;;;;;;24.27;12.27;;;10.00;99.90;;;;;;5052637;28;20224;-57
2022/05/01 04:39:10;;;;;;;17.53;10.83;;;10.20;99.90;;;;;;5052715;28;20590;-55
2022/05/01 04:41:36;;;;;;;16.93;9.83;;;10.40;99.90;;;;;;5053165;28;20189;-53
2022/05/01 04:44:01;;;;;;;29.47;10.53;;;10.40;99.90;;;;;;5053166;28;20227;-56
2022/05/01 04:46:27;;;;;;;17.70;9.53;;;10.60;99.90;;;;;;5052893;28;20526;-54
2022/05/01 04:48:53;;;;;;;14.60;9.07;;;10.50;99.90;;;;;;5052929;28;20191;-55
2022/05/01 04:51:19;;;;;;;15.47;9.43;;;10.40;99.90;;;;;;5052386;28;20180;-54
2022/05/01 04:53:45;;;;;;;21.63;10.17;;;10.40;99.90;;;;;;5052875;28;20662;-56
2022/05/01 04:58:55;;;;;;;14.10;9.20;;;10.30;99.90;;;;;;5052856;28;20199;-55
2022/05/01 05:01:21;;;;;;;23.13;10.20;;;10.30;99.90;;;;;;5052473;28;20186;-54
2022/05/01 05:03:47;;;;;;;30.23;11.57;;;10.30;99.90;;;;;;5051191;28;20209;-52
2022/05/01 05:06:13;;;;;;;18.97;9.50;;;10.40;99.90;;;;;;5050653;28;20277;-55
2022/05/01 05:11:23;;;;;;;22.63;9.63;;;10.70;99.90;;;;;;5052601;28;20290;-53
2022/05/01 05:13:48;;;;;;;16.63;9.83;;;10.90;99.90;;;;;;5052508;28;20275;-52
2022/05/01 05:16:14;;;;;;;15.30;9.03;;;11.10;99.90;;;;;;5052081;28;20217;-55
2022/05/01 05:18:40;;;;;;;16.63;9.13;;;11.30;99.90;;;;;;5052124;28;20279;-53
2022/05/01 05:21:07;;;;;;;20.27;10.37;;;11.50;99.90;;;;;;5051875;28;20238;-56
2022/05/01 05:23:33;;;;;;;24.67;9.10;;;11.70;99.90;;;;;;5034504;28;20202;-55
2022/05/01 05:25:59;;;;;;;18.60;8.03;;;12.00;99.90;;;;;;5034369;28;20200;-55
2022/05/01 05:28:25;;;;;;;15.73;7.80;;;12.20;99.90;;;;;;5050462;28;20185;-53
2022/05/01 05:30:52;;;;;;;21.47;8.40;;;12.40;99.90;;;;;;5051681;28;20209;-53
2022/05/01 05:33:18;;;;;;;17.90;8.60;;;12.50;99.90;;;;;;5051222;28;20181;-52
2022/05/01 05:35:45;;;;;;;14.50;7.97;;;12.50;99.90;;;;;;5051895;28;20233;-56
2022/05/01 05:38:11;;;;;;;19.53;8.13;;;12.60;99.90;;;;;;5051635;28;20183;-55
2022/05/01 05:40:38;;;;;;;18.67;7.60;;;12.70;99.90;;;;;;5051660;28;20602;-54
2022/05/01 05:43:04;;;;;;;13.67;7.03;;;12.90;99.90;;;;;;5051284;28;20269;-56
2022/05/01 05:45:29;;;;;;;12.57;7.47;;;12.80;99.90;;;;;;5051781;28;20637;-56
2022/05/01 05:47:55;;;;;;;18.00;10.57;;;12.90;99.90;;;;;;5050268;28;20194;-55
2022/05/01 05:50:21;;;;;;;24.80;11.03;;;12.90;99.90;;;;;;5051453;28;20185;-54
2022/05/01 05:52:47;;;;;;;20.53;10.97;;;13.10;99.90;;;;;;5051310;28;20590;-56
2022/05/01 05:55:12;;;;;;;19.37;11.53;;;13.20;99.90;;;;;;5051765;28;20179;-55
2022/05/01 05:57:38;;;;;;;20.07;10.73;;;13.30;99.90;;;;;;5051083;28;20182;-54
2022/05/01 06:00:05;;;;;;;15.83;9.60;;;13.40;99.90;;;;;;5051182;28;20321;-58
2022/05/01 06:02:31;;;;;;;16.33;10.10;;;13.40;99.90;;;;;;5051733;28;20189;-52
2022/05/01 06:04:58;;;;;;;23.30;9.10;;;13.30;99.90;;;;;;5051661;28;20178;-52
2022/05/01 06:07:24;;;;;;;25.63;9.67;;;13.60;99.90;;;;;;5051218;28;20236;-54
2022/05/01 06:09:50;;;;;;;15.73;8.93;;;13.60;99.90;;;;;;5051332;28;20184;-54
2022/05/01 06:12:15;;;;;;;19.60;11.17;;;13.70;99.90;;;;;;5051227;28;20179;-57
2022/05/01 06:14:41;;;;;;;27.63;10.87;;;13.80;99.90;;;;;;5033275;28;20194;-57
2022/05/01 06:17:08;;;;;;;23.87;11.27;;;14.00;99.90;;;;;;5050921;28;20222;-53
2022/05/01 06:19:33;;;;;;;18.87;10.57;;;14.00;99.90;;;;;;5051202;28;20301;-54
2022/05/01 06:21:59;;;;;;;27.80;11.50;;;13.90;99.90;;;;;;5051025;28;20279;-55
2022/05/01 06:24:25;;;;;;;36.47;12.77;;;13.90;99.90;;;;;;5051098;28;20186;-56
2022/05/01 06:26:51;;;;;;;25.63;11.80;;;13.80;99.90;;;;;;5049778;28;20283;-56
2022/05/01 06:29:16;;;;;;;17.67;10.77;;;13.80;99.90;;;;;;5049128;28;20186;-53
2022/05/01 06:31:42;;;;;;;28.30;11.03;;;13.70;99.90;;;;;;5051227;28;20632;-55
2022/05/01 06:34:11;;;;;;;23.53;10.93;;;13.60;99.90;;;;;;5051230;28;20186;-52
2022/05/01 06:36:37;;;;;;;22.77;11.97;;;13.40;99.90;;;;;;5051344;28;20213;-55
2022/05/01 06:39:03;;;;;;;17.17;10.53;;;13.30;99.90;;;;;;5049650;28;20534;-53
2022/05/01 06:41:29;;;;;;;15.80;10.47;;;13.30;99.90;;;;;;5049592;28;20178;-55
2022/05/01 06:43:55;;;;;;;33.27;12.37;;;13.30;99.90;;;;;;5051970;28;20217;-52
2022/05/01 06:46:21;;;;;;;18.97;10.53;;;13.40;99.90;;;;;;5053615;28;20236;-53
2022/05/01 06:48:46;;;;;;;22.57;11.57;;;13.40;99.90;;;;;;5055121;28;20204;-55
2022/05/01 06:51:12;;;;;;;28.30;12.93;;;13.50;99.90;;;;;;5054681;28;20178;-51
2022/05/01 06:53:38;;;;;;;20.60;12.27;;;13.60;99.90;;;;;;5054714;28;20630;-54
2022/05/01 06:56:03;;;;;;;19.47;12.00;;;13.60;99.90;;;;;;5054619;28;20241;-55
2022/05/01 06:58:31;;;;;;;20.07;11.23;;;13.70;99.90;;;;;;5054175;28;20202;-53
2022/05/01 07:00:57;;;;;;;16.77;10.10;;;13.80;99.90;;;;;;5054943;28;20260;-56
2022/05/01 07:03:22;;;;;;;25.27;11.57;;;13.90;99.90;;;;;;5054285;28;20178;-56
2022/05/01 07:05:48;;;;;;;22.77;10.23;;;14.10;99.90;;;;;;5054596;28;20570;-52
2022/05/01 07:08:14;;;;;;;24.80;9.93;;;14.20;99.90;;;;;;5054291;28;20179;-57
2022/05/01 07:10:40;;;;;;;22.33;9.27;;;14.30;99.90;;;;;;5054101;28;20623;-54
2022/05/01 07:13:06;;;;;;;14.27;9.47;;;14.40;99.90;;;;;;5052858;28;20551;-54
2022/05/01 07:15:32;;;;;;;24.67;9.83;;;14.50;99.90;;;;;;5054166;28;20216;-53
2022/05/01 07:17:57;;;;;;;30.77;11.17;;;14.60;99.90;;;;;;5054267;28;20182;-55
2022/05/01 07:20:23;;;;;;;13.57;8.67;;;14.60;99.90;;;;;;5053987;28;20193;-54
2022/05/01 07:22:49;;;;;;;21.63;9.40;;;14.70;99.90;;;;;;5053667;28;20703;-53
2022/05/01 07:25:15;;;;;;;15.37;9.73;;;14.80;99.90;;;;;;5053835;28;20791;-54
2022/05/01 07:27:40;;;;;;;15.97;9.13;;;14.90;99.90;;;;;;5052435;28;20193;-55
2022/05/01 07:30:06;;;;;;;13.97;8.10;;;14.90;99.90;;;;;;5052348;28;20540;-54
2022/05/01 07:32:32;;;;;;;12.23;8.40;;;14.90;99.90;;;;;;5052154;28;20592;-54
2022/05/01 07:34:58;;;;;;;21.93;8.20;;;15.00;99.90;;;;;;5053884;28;20518;-57
2022/05/01 07:37:26;;;;;;;26.10;8.63;;;15.00;99.90;;;;;;5053493;28;20237;-56
2022/05/01 07:39:52;;;;;;;13.57;7.73;;;15.10;99.90;;;;;;5053763;28;20256;-55
2022/05/01 07:42:18;;;;;;;13.83;8.10;;;15.10;99.90;;;;;;5053677;28;20277;-50
2022/05/01 07:44:44;;;;;;;13.23;7.50;;;15.10;99.90;;;;;;5054265;28;20274;-57
2022/05/01 07:47:10;;;;;;;15.90;6.30;;;15.20;99.90;;;;;;5052336;28;20539;-55
2022/05/01 07:49:36;;;;;;;12.50;5.87;;;15.20;99.90;;;;;;5052380;28;20284;-54
2022/05/01 07:52:02;;;;;;;7.97;4.90;;;15.30;99.90;;;;;;5053788;28;20186;-54
2022/05/01 07:54:27;;;;;;;7.77;4.10;;;15.40;97.80;;;;;;5052678;28;20283;-52
2022/05/01 07:56:53;;;;;;;7.40;3.90;;;15.60;91.40;;;;;;5052990;28;20215;-55
2022/05/01 07:59:19;;;;;;;8.60;3.70;;;15.80;83.20;;;;;;5053367;28;20265;-55
2022/05/01 08:01:44;;;;;;;10.40;3.60;;;16.00;81.70;;;;;;5052971;28;20186;-54
2022/05/01 08:04:28;;;;;;;5.17;3.20;;;16.10;79.70;;;;;;5051491;28;20221;-53
2022/05/01 08:07:04;;;;;;;9.27;3.87;;;16.20;77.30;;;;;;5053109;28;20193;-56
2022/05/01 08:09:30;;;;;;;5.97;3.47;;;16.30;77.70;;;;;;5052866;28;20186;-56
2022/05/01 08:11:57;;;;;;;7.03;3.27;;;16.40;81.90;;;;;;5051559;28;20193;-55
2022/05/01 08:14:23;;;;;;;14.40;3.40;;;16.40;80.40;;;;;;5053014;28;20264;-54
2022/05/01 08:16:49;;;;;;;15.47;4.13;;;16.30;78.40;;;;;;5052902;28;20637;-56
2022/05/01 08:22:00;;;;;;;8.80;4.10;;;16.20;79.00;;;;;;5052654;28;20245;-53
2022/05/01 08:24:26;;;;;;;15.73;3.67;;;16.30;81.20;;;;;;5050839;28;20185;-54
2022/05/01 08:26:52;;;;;;;14.53;4.10;;;16.50;81.10;;;;;;5052552;28;20309;-54
2022/05/01 08:29:18;;;;;;;10.43;3.20;;;16.70;74.70;;;;;;5052318;28;20238;-58
2022/05/01 08:31:44;;;;;;;4.13;2.57;;;16.80;74.90;;;;;;5052565;28;20268;-55
2022/05/01 08:34:11;;;;;;;7.70;3.20;;;16.80;70.40;;;;;;5052614;28;20197;-56
2022/05/01 08:36:37;;;;;;;14.83;3.63;;;16.80;68.80;;;;;;5052552;28;20222;-53
2022/05/01 08:39:03;;;;;;;4.97;2.80;;;16.80;67.60;;;;;;5052383;28;20186;-54
2022/05/01 08:41:31;;;;;;;9.03;3.47;;;16.80;65.00;;;;;;5051921;28;20186;-56
2022/05/01 08:43:58;;;;;;;5.93;2.93;;;16.90;65.00;;;;;;5051078;28;20174;-57
2022/05/01 08:46:29;;;;;;;11.97;3.03;;;17.00;64.00;;;;;;5051433;28;20192;-54
2022/05/01 08:49:04;;;;;;;6.87;3.43;;;17.00;64.90;;;;;;5052257;28;20178;-56
2022/05/01 08:51:32;;;;;;;4.27;2.57;;;17.00;61.60;;;;;;5051983;28;20190;-55
2022/05/01 08:54:00;;;;;;;5.97;2.57;;;17.20;60.50;;;;;;5052489;28;20178;-56
2022/05/01 08:56:26;;;;;;;5.63;2.83;;;17.20;58.70;;;;;;5051987;28;20580;-54
2022/05/01 08:58:53;;;;;;;15.00;3.80;;;17.30;56.20;;;;;;5052330;28;20546;-55
2022/05/01 09:01:19;;;;;;;4.53;2.43;;;17.40;56.40;;;;;;5052073;28;20189;-53
2022/05/01 09:03:45;;;;;;;6.43;3.00;;;17.70;57.80;;;;;;5052313;28;20538;-58
2022/05/01 09:06:12;;;;;;;15.33;12.37;;;17.90;57.80;;;;;;5051895;28;20186;-54
2022/05/01 09:08:41;;;;;;;8.47;2.80;;;18.10;54.10;;;;;;5052120;28;20267;-54
2022/05/01 09:13:52;;;;;;;13.70;3.53;;;18.20;50.30;;;;;;5052233;28;20267;-59
2022/05/01 09:16:18;;;;;;;4.17;2.37;;;18.20;49.20;;;;;;5051005;28;20205;-56
2022/05/01 09:18:46;;;;;;;5.50;2.93;;;18.20;49.80;;;;;;5051802;28;20248;-55
2022/05/01 09:21:13;;;;;;;4.37;2.53;;;18.10;48.80;;;;;;5051370;28;20288;-56
2022/05/01 09:24:05;;;;;;;6.50;2.40;;;18.00;49.50;;;;;;5051162;28;20595;-55
2022/05/01 09:26:37;;;;;;;11.03;3.17;;;18.00;50.50;;;;;;5051242;28;20236;-55
2022/05/01 09:29:03;;;;;;;5.00;2.90;;;18.00;51.00;;;;;;5051279;28;20289;-55
2022/05/01 09:31:48;;;;;;;6.07;2.83;;;17.90;50.70;;;;;;5051368;28;20217;-54
2022/05/01 09:34:25;;;;;;;3.90;2.37;;;18.00;51.00;;;;;;5051257;28;20178;-55
2022/05/01 09:36:51;;;;;;;10.73;3.10;;;18.10;50.80;;;;;;5051203;28;20214;-57
2022/05/01 09:39:23;;;;;;;7.50;3.30;;;18.20;51.90;;;;;;5051043;28;20193;-55
2022/05/01 09:41:50;;;;;;;9.53;2.70;;;18.20;51.30;;;;;;5051518;28;20170;-55
2022/05/01 09:44:17;;;;;;;4.70;2.53;;;18.40;51.90;;;;;;5050714;28;20182;-58
2022/05/01 09:46:44;;;;;;;11.33;3.63;;;18.50;51.50;;;;;;5051146;28;20175;-53
2022/05/01 09:49:15;;;;;;;9.07;3.00;;;18.60;52.10;;;;;;5051219;28;20186;-57
2022/05/01 09:51:43;;;;;;;11.23;2.90;;;18.60;51.50;;;;;;5051003;28;20205;-55
2022/05/01 09:54:16;;;;;;;20.55;4.80;;;18.80;50.90;;;;;;5051233;28;20190;-57
2022/05/01 09:56:52;;;;;;;11.18;3.42;;;19.00;51.10;;;;;;5051540;28;20267;-54
2022/05/01 09:59:20;;;;;;;7.03;3.67;;;19.00;50.30;;;;;;5051198;28;20209;-57
2022/05/01 10:02:05;;;;;;;6.82;2.90;;;18.80;50.30;;;;;;5051427;28;20274;-56
2022/05/01 10:04:33;;;;;;;6.60;2.88;;;18.90;51.60;;;;;;5050935;28;20177;-55
2022/05/01 10:06:59;;;;;;;10.15;3.13;;;18.80;51.40;;;;;;5050940;28;20288;-56
2022/05/01 10:09:30;;;;;;;10.10;3.15;;;18.70;52.50;;;;;;5050911;28;20174;-55
2022/05/01 10:11:58;;;;;;;4.55;2.78;;;18.70;53.00;;;;;;5050872;28;20178;-58
2022/05/01 10:14:26;;;;;;;4.60;2.95;;;19.00;52.90;;;;;;5050349;28;20232;-55
2022/05/01 10:16:54;;;;;;;7.78;2.97;;;19.40;51.40;;;;;;5050783;28;20375;-57
2022/05/01 10:19:23;;;;;;;7.78;3.03;;;19.70;50.80;;;;;;5056752;28;20600;-55
2022/05/01 10:21:52;;;;;;;6.20;2.78;;;20.00;49.60;;;;;;5057442;28;20587;-56
2022/05/01 10:24:18;;;;;;;6.28;2.83;;;19.90;47.90;;;;;;5057295;28;20270;-59
2022/05/01 10:27:01;;;;;;;6.88;2.65;;;20.10;48.80;;;;;;5057385;28;20209;-58
2022/05/01 10:29:39;;;;;;;5.82;3.03;;;19.90;46.30;;;;;;5057183;28;20209;-55
2022/05/01 10:32:23;;;;;;;6.65;2.42;;;20.10;48.00;;;;;;5057502;28;20182;-55
2022/05/01 10:35:07;;;;;;;11.02;4.30;;;20.40;47.50;;;;;;5057526;28;20540;-53
2022/05/01 10:38:02;;;;;;;9.02;3.00;;;21.10;47.40;;;;;;5057084;28;20217;-56
2022/05/01 10:40:51;;;;;;;5.93;2.60;;;21.50;48.10;;;;;;5057068;28;20531;-56
2022/05/01 10:43:24;;;;;;;8.82;2.92;;;21.90;47.30;;;;;;5056991;28;20185;-57
2022/05/01 10:45:53;;;;;;;6.07;3.20;;;22.00;46.20;;;;;;5057359;28;20189;-58
2022/05/01 10:48:37;;;;;;;6.47;2.97;;;22.50;46.20;;;;;;5057022;28;20265;-59
2022/05/01 10:51:31;;;;;;;8.90;3.20;;;22.80;45.30;;;;;;5056885;28;20517;-55
2022/05/01 10:54:15;;;;;;;9.90;3.03;;;22.90;43.90;;;;;;5051042;28;20690;-56
2022/05/01 10:56:43;;;;;;;7.95;3.42;;;22.50;45.30;;;;;;5056859;28;20217;-57
2022/05/01 10:59:27;;;;;;;10.60;3.20;;;22.10;43.70;;;;;;5057349;28;20178;-58
2022/05/01 11:01:54;;;;;;;7.80;2.53;;;21.80;43.60;;;;;;5056890;28;20243;-57
2022/05/01 11:04:21;;;;;;;11.23;3.35;;;22.00;44.30;;;;;;5056061;28;20251;-60
2022/05/01 11:06:51;;;;;;;6.93;3.45;;;22.60;44.40;;;;;;5056915;28;20178;-57
2022/05/01 11:09:22;;;;;;;6.25;3.33;;;22.90;44.80;;;;;;5057571;28;20189;-60
2022/05/01 11:11:52;;;;;;;9.82;2.90;;;22.90;43.90;;;;;;5055580;28;20178;-57
2022/05/01 11:14:38;;;;;;;7.20;4.38;;;22.30;43.60;;;;;;5056913;28;20251;-55
2022/05/01 11:17:04;;;;;;;5.18;2.85;;;22.20;44.90;;;;;;5057060;28;20317;-57
2022/05/01 11:19:51;;;;;;;7.22;3.38;;;21.90;44.40;;;;;;5056822;28;20240;-54
2022/05/01 11:22:25;;;;;;;10.68;3.85;;;21.80;45.80;;;;;;5056799;28;20268;-57
2022/05/01 11:24:51;;;;;;;5.88;2.80;;;21.40;45.70;;;;;;5057013;28;20182;-56
2022/05/01 11:27:18;;;;;;;5.65;2.75;;;21.70;45.90;;;;;;5056541;28;20191;-57
2022/05/01 11:30:29;;;;;;;6.28;3.20;;;22.40;45.40;;;;;;5054600;28;20193;-58
2022/05/01 11:33:09;;;;;;;7.80;4.10;;;23.30;43.60;;;;;;5031094;28;20183;-59
2022/05/01 11:35:55;;;;;;;10.43;4.15;;;23.00;44.60;;;;;;5052089;28;20241;-56
2022/05/01 11:38:30;;;;;;;10.85;3.88;;;23.80;43.40;;;;;;5053579;28;20190;-59
2022/05/01 11:41:00;;;;;;;10.57;3.13;;;25.50;42.00;;;;;;5053390;28;20189;-59
2022/05/01 11:43:29;;;;;;;19.35;4.10;;;26.70;40.30;;;;;;5052973;28;20250;-59
2022/05/01 11:45:56;;;;;;;15.65;3.92;;;28.80;38.60;;;;;;5051303;28;20194;-58
2022/05/01 11:48:22;;;;;;;11.25;4.43;;;29.80;36.10;;;;;;5053395;28;20247;-59
2022/05/01 11:50:51;;;;;;;12.65;3.03;;;28.90;35.30;;;;;;5053215;28;20644;-61
2022/05/01 11:53:19;;;;;;;10.05;3.70;;;28.10;35.50;;;;;;5052118;28;20182;-58
2022/05/01 12:04:26;;;;;;;11.48;3.35;;;28.60;35.70;;;;;;5053693;28;20284;-60
2022/05/01 12:07:15;;;;;;;4.32;2.65;;;28.30;36.40;;;;;;5053178;28;20182;-60
2022/05/01 12:09:42;;;;;;;17.42;4.93;;;29.10;35.30;;;;;;5053472;28;20191;-59
2022/05/01 12:12:11;;;;;;;8.45;3.30;;;29.70;34.20;;;;;;5052627;28;20581;-59
2022/05/01 12:14:38;;;;;;;6.03;3.10;;;30.40;33.20;;;;;;5052617;28;20592;-58
2022/05/01 12:17:14;;;;;;;9.32;2.70;;;30.40;32.80;;;;;;5052723;28;20303;-58
2022/05/01 12:19:44;;;;;;;5.63;2.72;;;30.30;33.60;;;;;;5052871;28;20197;-58
2022/05/01 12:22:14;;;;;;;4.40;2.80;;;30.60;32.80;;;;;;5052599;28;20372;-59
2022/05/01 12:24:41;;;;;;;9.43;4.35;;;31.40;32.50;;;;;;5053073;28;20189;-60
2022/05/01 12:27:08;;;;;;;3.60;2.50;;;31.20;32.50;;;;;;5052924;28;20198;-59
2022/05/01 12:29:35;;;;;;;7.65;2.75;;;31.30;31.70;;;;;;5053164;28;20262;-56
2022/05/01 12:32:07;;;;;;;5.45;2.50;;;31.50;31.20;;;;;;5051329;28;20216;-59
2022/05/01 12:34:56;;;;;;;3.60;2.72;;;31.00;31.40;;;;;;5051203;28;20285;-57
2022/05/01 12:37:41;;;;;;;7.60;2.90;;;31.20;31.00;;;;;;5052674;28;20296;-57
2022/05/01 12:40:12;;;;;;;4.43;2.78;;;31.30;31.70;;;;;;5052522;28;20542;-59
2022/05/01 12:45:44;;;;;;;6.00;2.78;;;32.30;30.20;;;;;;5052177;28;20304;-60
2022/05/01 12:48:12;;;;;;;10.48;3.45;;;32.80;30.10;;;;;;5051331;28;20183;-59
2022/05/01 12:50:38;;;;;;;10.38;2.80;;;33.50;29.70;;;;;;5052047;28;20530;-58
2022/05/01 12:53:29;;;;;;;12.50;3.22;;;33.90;28.90;;;;;;5052240;28;20193;-59
2022/05/01 12:55:57;;;;;;;11.50;4.22;;;33.40;29.00;;;;;;5052212;28;20575;-60
2022/05/01 12:58:32;;;;;;;5.70;3.03;;;34.20;29.20;;;;;;5052305;28;20655;-58
2022/05/01 13:00:59;;;;;;;19.67;3.10;;;34.00;28.20;;;;;;5050837;28;20521;-58
2022/05/01 13:03:33;;;;;;;7.53;2.17;;;33.60;29.10;;;;;;5052120;28;20206;-62
2022/05/01 13:06:09;;;;;;;7.97;2.97;;;33.50;29.50;;;;;;5052044;28;20189;-63
2022/05/01 13:08:39;;;;;;;5.75;3.90;;;33.50;29.40;;;;;;5050271;28;20196;-60
2022/05/01 13:11:10;;;;;;;9.10;2.88;;;33.20;29.00;;;;;;5051825;28;20175;-58
2022/05/01 13:13:56;;;;;;;4.70;2.60;;;32.80;28.70;;;;;;5050277;28;20183;-61
2022/05/01 13:16:31;;;;;;;6.97;2.58;;;32.70;29.20;;;;;;5052021;28;20638;-60
2022/05/01 13:19:09;;;;;;;21.83;4.70;;;33.80;29.00;;;;;;5052169;28;20178;-61
2022/05/01 13:21:41;;;;;;;7.40;2.88;;;33.90;28.40;;;;;;5050283;28;20225;-60
2022/05/01 13:24:14;;;;;;;5.00;2.90;;;33.70;29.30;;;;;;5050194;28;20214;-59
2022/05/01 13:26:41;;;;;;;9.38;3.80;;;33.80;29.00;;;;;;5051766;28;20296;-58
2022/05/01 13:29:10;;;;;;;4.38;2.20;;;34.00;28.60;;;;;;5051989;28;20217;-59